sensor_id;sensor_type;location;lat;lon;timestamp;P1;durP1;ratioP1;P2;durP2;ratioP2
48951;SDS011;34758;42.148;24.744;2023-07-29T00:01:34;3.28;;;2.03;;
48951;SDS011;34758;42.148;24.744;2023-07-29T00:04:05;4.05;;;2.25;;
48951;SDS011;34758;42.148;24.744;2023-07-29T00:06:31;4.72;;;2.45;;
48951;SDS011;34758;42.148;24.744;2023-07-29T00:09:00;5.63;;;1.75;;
48951;SDS011;34758;42.148;24.744;2023-07-29T00:11:28;5.20;;;2.10;;
48951;SDS011;34758;42.148;24.744;2023-07-29T00:13:56;6.65;;;1.90;;
48951;SDS011;34758;42.148;24.744;2023-07-29T00:16:23;4.75;;;2.33;;
48951;SDS011;34758;42.148;24.744;2023-07-29T00:18:52;4.72;;;2.88;;
48951;SDS011;34758;42.148;24.744;2023-07-29T00:21:19;3.90;;;2.40;;
48951;SDS011;34758;42.148;24.744;2023-07-29T00:23:46;4.72;;;2.47;;
48951;SDS011;34758;42.148;24.744;2023-07-29T00:26:22;4.55;;;2.70;;
48951;SDS011;34758;42.148;24.744;2023-07-29T00:28:54;6.30;;;2.72;;
48951;SDS011;34758;42.148;24.744;2023-07-29T00:31:22;4.47;;;2.25;;
48951;SDS011;34758;42.148;24.744;2023-07-29T00:33:50;3.63;;;2.03;;
48951;SDS011;34758;42.148;24.744;2023-07-29T00:36:18;3.67;;;2.00;;
48951;SDS011;34758;42.148;24.744;2023-07-29T00:38:47;3.70;;;2.17;;
48951;SDS011;34758;42.148;24.744;2023-07-29T00:41:16;4.63;;;2.22;;
48951;SDS011;34758;42.148;24.744;2023-07-29T00:43:44;4.43;;;2.05;;
48951;SDS011;34758;42.148;24.744;2023-07-29T00:46:14;5.57;;;1.67;;
48951;SDS011;34758;42.148;24.744;2023-07-29T00:48:43;2.30;;;1.65;;
48951;SDS011;34758;42.148;24.744;2023-07-29T00:51:11;4.35;;;1.83;;
48951;SDS011;34758;42.148;24.744;2023-07-29T00:53:38;2.35;;;1.52;;
48951;SDS011;34758;42.148;24.744;2023-07-29T00:56:05;3.88;;;1.67;;
48951;SDS011;34758;42.148;24.744;2023-07-29T00:58:35;4.28;;;2.05;;
48951;SDS011;34758;42.148;24.744;2023-07-29T01:01:05;2.85;;;1.73;;
48951;SDS011;34758;42.148;24.744;2023-07-29T01:03:31;3.78;;;1.80;;
48951;SDS011;34758;42.148;24.744;2023-07-29T01:06:03;2.95;;;2.08;;
48951;SDS011;34758;42.148;24.744;2023-07-29T01:08:38;4.10;;;1.75;;
48951;SDS011;34758;42.148;24.744;2023-07-29T01:11:13;3.85;;;1.77;;
48951;SDS011;34758;42.148;24.744;2023-07-29T01:13:49;3.70;;;2.00;;
48951;SDS011;34758;42.148;24.744;2023-07-29T01:16:21;2.92;;;2.05;;
48951;SDS011;34758;42.148;24.744;2023-07-29T01:18:54;4.38;;;1.80;;
48951;SDS011;34758;42.148;24.744;2023-07-29T01:21:22;3.10;;;1.80;;
48951;SDS011;34758;42.148;24.744;2023-07-29T01:23:53;3.42;;;2.25;;
48951;SDS011;34758;42.148;24.744;2023-07-29T01:26:25;4.00;;;2.00;;
48951;SDS011;34758;42.148;24.744;2023-07-29T01:28:53;8.55;;;2.25;;
48951;SDS011;34758;42.148;24.744;2023-07-29T01:31:22;3.85;;;1.80;;
48951;SDS011;34758;42.148;24.744;2023-07-29T01:33:53;4.35;;;2.10;;
48951;SDS011;34758;42.148;24.744;2023-07-29T01:36:25;1.98;;;1.75;;
48951;SDS011;34758;42.148;24.744;2023-07-29T01:38:56;3.60;;;2.58;;
48951;SDS011;34758;42.148;24.744;2023-07-29T01:41:24;5.07;;;2.55;;
48951;SDS011;34758;42.148;24.744;2023-07-29T01:43:54;7.03;;;2.70;;
48951;SDS011;34758;42.148;24.744;2023-07-29T01:46:22;3.25;;;2.63;;
48951;SDS011;34758;42.148;24.744;2023-07-29T01:48:49;5.88;;;2.78;;
48951;SDS011;34758;42.148;24.744;2023-07-29T01:51:17;4.90;;;2.55;;
48951;SDS011;34758;42.148;24.744;2023-07-29T01:53:47;3.35;;;2.40;;
48951;SDS011;34758;42.148;24.744;2023-07-29T01:56:17;3.08;;;2.58;;
48951;SDS011;34758;42.148;24.744;2023-07-29T01:58:44;3.45;;;2.60;;
48951;SDS011;34758;42.148;24.744;2023-07-29T02:01:13;4.18;;;2.22;;
48951;SDS011;34758;42.148;24.744;2023-07-29T02:03:42;4.45;;;2.20;;
48951;SDS011;34758;42.148;24.744;2023-07-29T02:06:16;3.92;;;2.92;;
48951;SDS011;34758;42.148;24.744;2023-07-29T02:08:46;6.32;;;2.80;;
48951;SDS011;34758;42.148;24.744;2023-07-29T02:11:13;3.55;;;2.80;;
48951;SDS011;34758;42.148;24.744;2023-07-29T02:13:43;4.82;;;3.67;;
48951;SDS011;34758;42.148;24.744;2023-07-29T02:16:11;9.63;;;3.58;;
48951;SDS011;34758;42.148;24.744;2023-07-29T02:18:38;5.88;;;3.15;;
48951;SDS011;34758;42.148;24.744;2023-07-29T02:21:08;5.10;;;3.42;;
48951;SDS011;34758;42.148;24.744;2023-07-29T02:23:36;3.53;;;3.20;;
48951;SDS011;34758;42.148;24.744;2023-07-29T02:26:05;4.15;;;2.85;;
48951;SDS011;34758;42.148;24.744;2023-07-29T02:28:33;6.65;;;3.70;;
48951;SDS011;34758;42.148;24.744;2023-07-29T02:31:20;8.30;;;3.33;;
48951;SDS011;34758;42.148;24.744;2023-07-29T02:33:47;6.95;;;3.33;;
48951;SDS011;34758;42.148;24.744;2023-07-29T02:36:17;5.32;;;3.35;;
48951;SDS011;34758;42.148;24.744;2023-07-29T02:38:44;4.32;;;2.65;;
48951;SDS011;34758;42.148;24.744;2023-07-29T02:41:14;5.78;;;3.40;;
48951;SDS011;34758;42.148;24.744;2023-07-29T02:43:47;3.45;;;2.78;;
48951;SDS011;34758;42.148;24.744;2023-07-29T02:48:44;6.47;;;3.70;;
48951;SDS011;34758;42.148;24.744;2023-07-29T02:51:12;6.25;;;2.90;;
48951;SDS011;34758;42.148;24.744;2023-07-29T02:53:40;4.47;;;2.80;;
48951;SDS011;34758;42.148;24.744;2023-07-29T02:56:10;7.32;;;3.45;;
48951;SDS011;34758;42.148;24.744;2023-07-29T02:58:37;4.65;;;3.10;;
48951;SDS011;34758;42.148;24.744;2023-07-29T03:01:05;5.18;;;3.00;;
48951;SDS011;34758;42.148;24.744;2023-07-29T03:03:34;3.72;;;2.70;;
48951;SDS011;34758;42.148;24.744;2023-07-29T03:06:02;4.30;;;2.72;;
48951;SDS011;34758;42.148;24.744;2023-07-29T03:08:30;4.88;;;2.22;;
48951;SDS011;34758;42.148;24.744;2023-07-29T03:10:57;4.07;;;2.45;;
48951;SDS011;34758;42.148;24.744;2023-07-29T03:13:32;4.90;;;2.33;;
48951;SDS011;34758;42.148;24.744;2023-07-29T03:16:04;3.83;;;2.92;;
48951;SDS011;34758;42.148;24.744;2023-07-29T03:18:31;3.20;;;2.90;;
48951;SDS011;34758;42.148;24.744;2023-07-29T03:21:01;4.47;;;2.90;;
48951;SDS011;34758;42.148;24.744;2023-07-29T03:23:28;4.50;;;3.05;;
48951;SDS011;34758;42.148;24.744;2023-07-29T03:25:58;7.10;;;3.20;;
48951;SDS011;34758;42.148;24.744;2023-07-29T03:28:28;6.93;;;3.17;;
48951;SDS011;34758;42.148;24.744;2023-07-29T03:30:56;4.53;;;3.10;;
48951;SDS011;34758;42.148;24.744;2023-07-29T03:33:24;3.90;;;3.30;;
48951;SDS011;34758;42.148;24.744;2023-07-29T03:35:52;5.25;;;2.50;;
48951;SDS011;34758;42.148;24.744;2023-07-29T03:38:21;4.30;;;2.60;;
48951;SDS011;34758;42.148;24.744;2023-07-29T03:40:48;6.55;;;3.22;;
48951;SDS011;34758;42.148;24.744;2023-07-29T03:43:15;3.85;;;2.80;;
48951;SDS011;34758;42.148;24.744;2023-07-29T03:45:42;7.05;;;3.10;;
48951;SDS011;34758;42.148;24.744;2023-07-29T03:48:09;4.35;;;3.20;;
48951;SDS011;34758;42.148;24.744;2023-07-29T03:50:37;4.32;;;3.03;;
48951;SDS011;34758;42.148;24.744;2023-07-29T03:53:04;6.10;;;3.17;;
48951;SDS011;34758;42.148;24.744;2023-07-29T03:55:33;3.78;;;2.95;;
48951;SDS011;34758;42.148;24.744;2023-07-29T03:58:00;4.47;;;2.60;;
48951;SDS011;34758;42.148;24.744;2023-07-29T04:00:28;6.22;;;3.08;;
48951;SDS011;34758;42.148;24.744;2023-07-29T04:02:57;4.40;;;2.53;;
48951;SDS011;34758;42.148;24.744;2023-07-29T04:05:23;4.72;;;3.05;;
48951;SDS011;34758;42.148;24.744;2023-07-29T04:07:51;3.38;;;2.78;;
48951;SDS011;34758;42.148;24.744;2023-07-29T04:10:19;5.32;;;2.72;;
48951;SDS011;34758;42.148;24.744;2023-07-29T04:12:48;3.85;;;2.88;;
48951;SDS011;34758;42.148;24.744;2023-07-29T04:15:15;4.10;;;2.83;;
48951;SDS011;34758;42.148;24.744;2023-07-29T04:17:42;3.78;;;2.55;;
48951;SDS011;34758;42.148;24.744;2023-07-29T04:20:11;4.88;;;2.88;;
48951;SDS011;34758;42.148;24.744;2023-07-29T04:22:39;5.57;;;2.95;;
48951;SDS011;34758;42.148;24.744;2023-07-29T04:25:06;9.50;;;3.13;;
48951;SDS011;34758;42.148;24.744;2023-07-29T04:27:35;9.63;;;2.88;;
48951;SDS011;34758;42.148;24.744;2023-07-29T04:30:03;7.50;;;3.13;;
48951;SDS011;34758;42.148;24.744;2023-07-29T04:32:31;6.22;;;3.65;;
48951;SDS011;34758;42.148;24.744;2023-07-29T04:34:58;7.25;;;3.50;;
48951;SDS011;34758;42.148;24.744;2023-07-29T04:37:27;4.88;;;2.75;;
48951;SDS011;34758;42.148;24.744;2023-07-29T04:39:54;6.18;;;3.22;;
48951;SDS011;34758;42.148;24.744;2023-07-29T04:42:21;5.88;;;3.05;;
48951;SDS011;34758;42.148;24.744;2023-07-29T04:44:48;5.93;;;2.80;;
48951;SDS011;34758;42.148;24.744;2023-07-29T04:47:18;4.35;;;3.03;;
48951;SDS011;34758;42.148;24.744;2023-07-29T04:49:45;5.03;;;3.10;;
48951;SDS011;34758;42.148;24.744;2023-07-29T04:52:12;5.78;;;2.92;;
48951;SDS011;34758;42.148;24.744;2023-07-29T04:54:40;5.20;;;3.25;;
48951;SDS011;34758;42.148;24.744;2023-07-29T04:57:08;8.52;;;3.00;;
48951;SDS011;34758;42.148;24.744;2023-07-29T04:59:37;6.03;;;3.05;;
48951;SDS011;34758;42.148;24.744;2023-07-29T05:02:05;5.00;;;2.90;;
48951;SDS011;34758;42.148;24.744;2023-07-29T05:04:33;6.93;;;2.95;;
48951;SDS011;34758;42.148;24.744;2023-07-29T05:07:00;4.75;;;2.90;;
48951;SDS011;34758;42.148;24.744;2023-07-29T05:09:27;4.55;;;2.70;;
48951;SDS011;34758;42.148;24.744;2023-07-29T05:11:56;4.63;;;3.13;;
48951;SDS011;34758;42.148;24.744;2023-07-29T05:14:26;3.97;;;3.05;;
48951;SDS011;34758;42.148;24.744;2023-07-29T05:16:53;3.60;;;2.80;;
48951;SDS011;34758;42.148;24.744;2023-07-29T05:19:20;5.13;;;2.33;;
48951;SDS011;34758;42.148;24.744;2023-07-29T05:21:49;7.03;;;2.47;;
48951;SDS011;34758;42.148;24.744;2023-07-29T05:24:16;4.70;;;2.78;;
48951;SDS011;34758;42.148;24.744;2023-07-29T05:26:44;8.95;;;2.80;;
48951;SDS011;34758;42.148;24.744;2023-07-29T05:29:11;6.57;;;2.90;;
48951;SDS011;34758;42.148;24.744;2023-07-29T05:31:38;7.95;;;3.50;;
48951;SDS011;34758;42.148;24.744;2023-07-29T05:34:06;8.30;;;3.22;;
48951;SDS011;34758;42.148;24.744;2023-07-29T05:36:32;5.88;;;3.30;;
48951;SDS011;34758;42.148;24.744;2023-07-29T05:39:01;4.57;;;3.00;;
48951;SDS011;34758;42.148;24.744;2023-07-29T05:41:29;5.03;;;2.72;;
48951;SDS011;34758;42.148;24.744;2023-07-29T05:43:57;5.78;;;2.80;;
48951;SDS011;34758;42.148;24.744;2023-07-29T05:46:24;5.55;;;3.30;;
48951;SDS011;34758;42.148;24.744;2023-07-29T05:48:52;6.32;;;3.55;;
48951;SDS011;34758;42.148;24.744;2023-07-29T05:51:18;7.05;;;2.80;;
48951;SDS011;34758;42.148;24.744;2023-07-29T05:53:46;6.55;;;3.00;;
48951;SDS011;34758;42.148;24.744;2023-07-29T05:56:14;5.35;;;3.15;;
48951;SDS011;34758;42.148;24.744;2023-07-29T05:58:41;9.05;;;2.83;;
48951;SDS011;34758;42.148;24.744;2023-07-29T06:01:09;9.85;;;2.95;;
48951;SDS011;34758;42.148;24.744;2023-07-29T06:03:37;5.93;;;3.00;;
48951;SDS011;34758;42.148;24.744;2023-07-29T06:06:05;6.22;;;2.53;;
48951;SDS011;34758;42.148;24.744;2023-07-29T06:08:32;9.45;;;3.30;;
48951;SDS011;34758;42.148;24.744;2023-07-29T06:11:01;6.60;;;3.05;;
48951;SDS011;34758;42.148;24.744;2023-07-29T06:13:32;4.55;;;2.75;;
48951;SDS011;34758;42.148;24.744;2023-07-29T06:16:00;3.00;;;2.60;;
48951;SDS011;34758;42.148;24.744;2023-07-29T06:18:30;4.65;;;2.40;;
48951;SDS011;34758;42.148;24.744;2023-07-29T06:20:58;3.28;;;2.17;;
48951;SDS011;34758;42.148;24.744;2023-07-29T06:23:25;3.92;;;2.50;;
48951;SDS011;34758;42.148;24.744;2023-07-29T06:25:54;4.82;;;1.95;;
48951;SDS011;34758;42.148;24.744;2023-07-29T06:28:24;3.92;;;2.28;;
48951;SDS011;34758;42.148;24.744;2023-07-29T06:30:53;4.07;;;2.30;;
48951;SDS011;34758;42.148;24.744;2023-07-29T06:33:21;3.75;;;2.25;;
48951;SDS011;34758;42.148;24.744;2023-07-29T06:35:49;3.22;;;2.17;;
48951;SDS011;34758;42.148;24.744;2023-07-29T06:38:18;6.22;;;2.95;;
48951;SDS011;34758;42.148;24.744;2023-07-29T06:40:47;5.00;;;2.05;;
48951;SDS011;34758;42.148;24.744;2023-07-29T06:43:18;9.77;;;2.42;;
48951;SDS011;34758;42.148;24.744;2023-07-29T06:45:48;3.88;;;2.05;;
48951;SDS011;34758;42.148;24.744;2023-07-29T06:48:17;8.52;;;2.38;;
48951;SDS011;34758;42.148;24.744;2023-07-29T06:50:45;7.10;;;2.10;;
48951;SDS011;34758;42.148;24.744;2023-07-29T06:53:15;5.78;;;2.25;;
48951;SDS011;34758;42.148;24.744;2023-07-29T06:55:42;4.78;;;2.22;;
48951;SDS011;34758;42.148;24.744;2023-07-29T06:58:10;4.07;;;2.28;;
48951;SDS011;34758;42.148;24.744;2023-07-29T07:00:37;4.38;;;2.03;;
48951;SDS011;34758;42.148;24.744;2023-07-29T07:03:06;4.53;;;1.95;;
48951;SDS011;34758;42.148;24.744;2023-07-29T07:05:38;9.38;;;2.47;;
48951;SDS011;34758;42.148;24.744;2023-07-29T07:08:05;6.45;;;2.03;;
48951;SDS011;34758;42.148;24.744;2023-07-29T07:10:32;5.60;;;1.95;;
48951;SDS011;34758;42.148;24.744;2023-07-29T07:12:59;4.82;;;2.88;;
48951;SDS011;34758;42.148;24.744;2023-07-29T07:15:27;6.60;;;2.28;;
48951;SDS011;34758;42.148;24.744;2023-07-29T07:17:55;4.22;;;2.20;;
48951;SDS011;34758;42.148;24.744;2023-07-29T07:20:24;8.82;;;2.60;;
48951;SDS011;34758;42.148;24.744;2023-07-29T07:22:52;6.40;;;2.63;;
48951;SDS011;34758;42.148;24.744;2023-07-29T07:25:19;4.20;;;2.58;;
48951;SDS011;34758;42.148;24.744;2023-07-29T07:27:46;4.82;;;2.70;;
48951;SDS011;34758;42.148;24.744;2023-07-29T07:30:15;6.50;;;2.50;;
48951;SDS011;34758;42.148;24.744;2023-07-29T07:32:47;7.05;;;2.28;;
48951;SDS011;34758;42.148;24.744;2023-07-29T07:35:15;4.13;;;1.88;;
48951;SDS011;34758;42.148;24.744;2023-07-29T07:37:44;4.93;;;2.30;;
48951;SDS011;34758;42.148;24.744;2023-07-29T07:40:12;5.22;;;2.30;;
48951;SDS011;34758;42.148;24.744;2023-07-29T07:42:40;4.50;;;2.30;;
48951;SDS011;34758;42.148;24.744;2023-07-29T07:45:07;5.50;;;2.22;;
48951;SDS011;34758;42.148;24.744;2023-07-29T07:47:37;3.70;;;2.20;;
48951;SDS011;34758;42.148;24.744;2023-07-29T07:50:04;4.25;;;2.50;;
48951;SDS011;34758;42.148;24.744;2023-07-29T07:52:33;6.95;;;2.58;;
48951;SDS011;34758;42.148;24.744;2023-07-29T07:55:00;3.40;;;2.35;;
48951;SDS011;34758;42.148;24.744;2023-07-29T07:57:30;3.60;;;2.70;;
48951;SDS011;34758;42.148;24.744;2023-07-29T07:59:57;4.18;;;2.40;;
48951;SDS011;34758;42.148;24.744;2023-07-29T08:02:24;3.88;;;2.35;;
48951;SDS011;34758;42.148;24.744;2023-07-29T08:04:51;3.97;;;2.10;;
48951;SDS011;34758;42.148;24.744;2023-07-29T08:07:18;3.25;;;2.15;;
48951;SDS011;34758;42.148;24.744;2023-07-29T08:09:46;7.47;;;2.60;;
48951;SDS011;34758;42.148;24.744;2023-07-29T08:12:15;6.63;;;2.88;;
48951;SDS011;34758;42.148;24.744;2023-07-29T08:14:43;7.35;;;3.15;;
48951;SDS011;34758;42.148;24.744;2023-07-29T08:17:10;4.75;;;2.00;;
48951;SDS011;34758;42.148;24.744;2023-07-29T08:19:38;3.40;;;2.40;;
48951;SDS011;34758;42.148;24.744;2023-07-29T08:22:05;5.20;;;2.47;;
48951;SDS011;34758;42.148;24.744;2023-07-29T08:24:33;4.47;;;2.50;;
48951;SDS011;34758;42.148;24.744;2023-07-29T08:27:01;12.82;;;11.38;;
48951;SDS011;34758;42.148;24.744;2023-07-29T08:29:28;14.10;;;11.07;;
48951;SDS011;34758;42.148;24.744;2023-07-29T08:31:57;5.40;;;2.50;;
48951;SDS011;34758;42.148;24.744;2023-07-29T08:34:23;4.95;;;2.60;;
48951;SDS011;34758;42.148;24.744;2023-07-29T08:36:50;3.22;;;2.28;;
48951;SDS011;34758;42.148;24.744;2023-07-29T08:39:17;5.53;;;2.83;;
48951;SDS011;34758;42.148;24.744;2023-07-29T08:41:46;3.33;;;2.60;;
48951;SDS011;34758;42.148;24.744;2023-07-29T08:44:18;5.35;;;2.70;;
48951;SDS011;34758;42.148;24.744;2023-07-29T08:46:52;3.72;;;2.88;;
48951;SDS011;34758;42.148;24.744;2023-07-29T08:49:24;2.72;;;2.15;;
48951;SDS011;34758;42.148;24.744;2023-07-29T08:51:58;4.50;;;2.35;;
48951;SDS011;34758;42.148;24.744;2023-07-29T08:54:26;6.50;;;2.35;;
48951;SDS011;34758;42.148;24.744;2023-07-29T08:56:53;6.40;;;3.15;;
48951;SDS011;34758;42.148;24.744;2023-07-29T08:59:20;3.67;;;2.50;;
48951;SDS011;34758;42.148;24.744;2023-07-29T09:01:48;4.60;;;2.33;;
48951;SDS011;34758;42.148;24.744;2023-07-29T09:04:16;3.35;;;2.33;;
48951;SDS011;34758;42.148;24.744;2023-07-29T09:06:44;4.28;;;2.55;;
48951;SDS011;34758;42.148;24.744;2023-07-29T09:09:15;3.25;;;2.20;;
48951;SDS011;34758;42.148;24.744;2023-07-29T09:11:43;5.50;;;2.15;;
48951;SDS011;34758;42.148;24.744;2023-07-29T09:14:10;3.33;;;2.20;;
48951;SDS011;34758;42.148;24.744;2023-07-29T09:16:37;4.45;;;2.70;;
48951;SDS011;34758;42.148;24.744;2023-07-29T09:19:05;2.60;;;2.10;;
48951;SDS011;34758;42.148;24.744;2023-07-29T09:21:31;3.40;;;2.10;;
48951;SDS011;34758;42.148;24.744;2023-07-29T09:24:03;5.80;;;3.33;;
48951;SDS011;34758;42.148;24.744;2023-07-29T09:26:35;2.85;;;2.60;;
48951;SDS011;34758;42.148;24.744;2023-07-29T09:29:02;5.80;;;2.70;;
48951;SDS011;34758;42.148;24.744;2023-07-29T09:31:29;3.97;;;2.47;;
48951;SDS011;34758;42.148;24.744;2023-07-29T09:33:57;5.65;;;2.63;;
48951;SDS011;34758;42.148;24.744;2023-07-29T09:36:25;5.38;;;2.65;;
48951;SDS011;34758;42.148;24.744;2023-07-29T09:38:52;3.47;;;2.30;;
48951;SDS011;34758;42.148;24.744;2023-07-29T09:41:23;3.80;;;2.35;;
48951;SDS011;34758;42.148;24.744;2023-07-29T09:43:55;3.17;;;1.90;;
48951;SDS011;34758;42.148;24.744;2023-07-29T09:46:25;2.17;;;1.98;;
48951;SDS011;34758;42.148;24.744;2023-07-29T09:48:58;3.65;;;2.30;;
48951;SDS011;34758;42.148;24.744;2023-07-29T09:51:25;4.00;;;1.98;;
48951;SDS011;34758;42.148;24.744;2023-07-29T09:53:53;3.72;;;2.00;;
48951;SDS011;34758;42.148;24.744;2023-07-29T09:56:24;2.30;;;1.80;;
48951;SDS011;34758;42.148;24.744;2023-07-29T09:58:52;3.65;;;1.50;;
48951;SDS011;34758;42.148;24.744;2023-07-29T10:01:19;2.20;;;1.50;;
48951;SDS011;34758;42.148;24.744;2023-07-29T10:03:46;1.67;;;1.58;;
48951;SDS011;34758;42.148;24.744;2023-07-29T10:06:15;2.05;;;1.60;;
48951;SDS011;34758;42.148;24.744;2023-07-29T10:08:42;3.80;;;1.45;;
48951;SDS011;34758;42.148;24.744;2023-07-29T10:11:10;3.22;;;1.63;;
48951;SDS011;34758;42.148;24.744;2023-07-29T10:13:39;1.70;;;1.60;;
48951;SDS011;34758;42.148;24.744;2023-07-29T10:16:07;1.73;;;1.40;;
48951;SDS011;34758;42.148;24.744;2023-07-29T10:18:38;1.95;;;1.40;;
48951;SDS011;34758;42.148;24.744;2023-07-29T10:21:06;1.70;;;1.40;;
48951;SDS011;34758;42.148;24.744;2023-07-29T10:23:37;1.40;;;1.30;;
48951;SDS011;34758;42.148;24.744;2023-07-29T10:26:06;1.92;;;1.75;;
48951;SDS011;34758;42.148;24.744;2023-07-29T10:28:37;2.00;;;1.60;;
48951;SDS011;34758;42.148;24.744;2023-07-29T10:31:12;3.47;;;1.75;;
48951;SDS011;34758;42.148;24.744;2023-07-29T10:33:40;2.28;;;1.70;;
48951;SDS011;34758;42.148;24.744;2023-07-29T10:36:07;3.60;;;1.65;;
48951;SDS011;34758;42.148;24.744;2023-07-29T10:38:34;2.38;;;1.98;;
48951;SDS011;34758;42.148;24.744;2023-07-29T10:41:01;5.63;;;1.90;;
48951;SDS011;34758;42.148;24.744;2023-07-29T10:43:31;2.20;;;1.80;;
48951;SDS011;34758;42.148;24.744;2023-07-29T10:46:15;2.00;;;1.70;;
48951;SDS011;34758;42.148;24.744;2023-07-29T10:48:51;2.42;;;1.77;;
48951;SDS011;34758;42.148;24.744;2023-07-29T10:51:23;2.15;;;1.90;;
48951;SDS011;34758;42.148;24.744;2023-07-29T10:53:52;1.90;;;1.80;;
48951;SDS011;34758;42.148;24.744;2023-07-29T10:56:24;2.08;;;1.45;;
48951;SDS011;34758;42.148;24.744;2023-07-29T10:58:54;1.85;;;1.42;;
48951;SDS011;34758;42.148;24.744;2023-07-29T11:01:27;3.38;;;1.65;;
48951;SDS011;34758;42.148;24.744;2023-07-29T11:09:55;3.92;;;1.50;;
48951;SDS011;34758;42.148;24.744;2023-07-29T11:15:20;1.92;;;1.73;;
48951;SDS011;34758;42.148;24.744;2023-07-29T11:17:50;1.88;;;1.77;;
48951;SDS011;34758;42.148;24.744;2023-07-29T11:20:21;2.38;;;1.80;;
48951;SDS011;34758;42.148;24.744;2023-07-29T11:22:50;4.35;;;1.60;;
48951;SDS011;34758;42.148;24.744;2023-07-29T11:25:17;2.28;;;1.65;;
48951;SDS011;34758;42.148;24.744;2023-07-29T11:27:52;2.55;;;1.50;;
48951;SDS011;34758;42.148;24.744;2023-07-29T11:30:22;3.22;;;1.70;;
48951;SDS011;34758;42.148;24.744;2023-07-29T11:32:53;2.00;;;1.90;;
48951;SDS011;34758;42.148;24.744;2023-07-29T11:35:22;2.70;;;1.45;;
48951;SDS011;34758;42.148;24.744;2023-07-29T11:37:49;1.98;;;1.35;;
48951;SDS011;34758;42.148;24.744;2023-07-29T11:40:18;3.58;;;1.65;;
48951;SDS011;34758;42.148;24.744;2023-07-29T11:42:46;3.22;;;1.60;;
48951;SDS011;34758;42.148;24.744;2023-07-29T11:45:15;1.50;;;1.40;;
48951;SDS011;34758;42.148;24.744;2023-07-29T11:47:43;2.25;;;1.48;;
48951;SDS011;34758;42.148;24.744;2023-07-29T11:50:13;4.13;;;1.30;;
48951;SDS011;34758;42.148;24.744;2023-07-29T11:52:43;1.40;;;1.30;;
48951;SDS011;34758;42.148;24.744;2023-07-29T11:55:11;2.10;;;1.60;;
48951;SDS011;34758;42.148;24.744;2023-07-29T11:57:39;1.95;;;1.23;;
48951;SDS011;34758;42.148;24.744;2023-07-29T12:00:10;2.30;;;1.60;;
48951;SDS011;34758;42.148;24.744;2023-07-29T12:02:40;2.00;;;1.23;;
48951;SDS011;34758;42.148;24.744;2023-07-29T12:05:09;3.87;;;1.90;;
48951;SDS011;34758;42.148;24.744;2023-07-29T12:07:39;3.25;;;1.73;;
48951;SDS011;34758;42.148;24.744;2023-07-29T12:10:14;1.63;;;1.52;;
48951;SDS011;34758;42.148;24.744;2023-07-29T12:12:44;2.72;;;1.73;;
48951;SDS011;34758;42.148;24.744;2023-07-29T12:15:25;3.33;;;1.92;;
48951;SDS011;34758;42.148;24.744;2023-07-29T12:17:53;2.42;;;1.40;;
48951;SDS011;34758;42.148;24.744;2023-07-29T12:20:24;2.78;;;1.40;;
48951;SDS011;34758;42.148;24.744;2023-07-29T12:22:53;2.78;;;1.25;;
48951;SDS011;34758;42.148;24.744;2023-07-29T12:25:22;2.22;;;1.00;;
48951;SDS011;34758;42.148;24.744;2023-07-29T12:27:54;1.92;;;1.02;;
48951;SDS011;34758;42.148;24.744;2023-07-29T12:30:25;1.27;;;1.17;;
48951;SDS011;34758;42.148;24.744;2023-07-29T12:32:53;2.25;;;0.95;;
48951;SDS011;34758;42.148;24.744;2023-07-29T12:35:24;1.60;;;1.50;;
48951;SDS011;34758;42.148;24.744;2023-07-29T12:38:01;1.83;;;1.10;;
48951;SDS011;34758;42.148;24.744;2023-07-29T12:40:31;3.33;;;1.00;;
48951;SDS011;34758;42.148;24.744;2023-07-29T12:42:58;1.05;;;0.98;;
48951;SDS011;34758;42.148;24.744;2023-07-29T12:45:35;1.10;;;0.97;;
48951;SDS011;34758;42.148;24.744;2023-07-29T12:48:05;1.02;;;0.82;;
48951;SDS011;34758;42.148;24.744;2023-07-29T12:50:33;2.50;;;1.00;;
48951;SDS011;34758;42.148;24.744;2023-07-29T12:53:04;0.88;;;0.88;;
48951;SDS011;34758;42.148;24.744;2023-07-29T12:55:33;1.20;;;1.00;;
48951;SDS011;34758;42.148;24.744;2023-07-29T12:58:02;4.82;;;0.90;;
48951;SDS011;34758;42.148;24.744;2023-07-29T13:00:31;2.47;;;1.00;;
48951;SDS011;34758;42.148;24.744;2023-07-29T13:03:01;2.15;;;1.00;;
48951;SDS011;34758;42.148;24.744;2023-07-29T13:05:31;1.63;;;0.90;;
48951;SDS011;34758;42.148;24.744;2023-07-29T13:08:04;0.90;;;0.80;;
48951;SDS011;34758;42.148;24.744;2023-07-29T13:10:35;0.70;;;0.50;;
48951;SDS011;34758;42.148;24.744;2023-07-29T13:13:06;0.65;;;0.60;;
48951;SDS011;34758;42.148;24.744;2023-07-29T13:15:34;0.57;;;0.50;;
48951;SDS011;34758;42.148;24.744;2023-07-29T13:18:02;0.77;;;0.40;;
48951;SDS011;34758;42.148;24.744;2023-07-29T13:20:30;0.63;;;0.52;;
48951;SDS011;34758;42.148;24.744;2023-07-29T13:22:59;0.63;;;0.40;;
48951;SDS011;34758;42.148;24.744;2023-07-29T13:25:28;1.17;;;0.60;;
48951;SDS011;34758;42.148;24.744;2023-07-29T13:27:56;1.83;;;0.55;;
48951;SDS011;34758;42.148;24.744;2023-07-29T13:30:23;0.77;;;0.60;;
48951;SDS011;34758;42.148;24.744;2023-07-29T13:32:53;1.13;;;0.82;;
48951;SDS011;34758;42.148;24.744;2023-07-29T13:35:20;0.52;;;0.50;;
48951;SDS011;34758;42.148;24.744;2023-07-29T13:37:47;2.08;;;0.82;;
48951;SDS011;34758;42.148;24.744;2023-07-29T13:40:16;1.30;;;1.00;;
48951;SDS011;34758;42.148;24.744;2023-07-29T13:42:56;1.60;;;0.63;;
48951;SDS011;34758;42.148;24.744;2023-07-29T13:45:26;1.00;;;0.60;;
48951;SDS011;34758;42.148;24.744;2023-07-29T13:47:58;2.00;;;0.80;;
48951;SDS011;34758;42.148;24.744;2023-07-29T13:50:31;0.73;;;0.68;;
48951;SDS011;34758;42.148;24.744;2023-07-29T13:53:02;0.88;;;0.50;;
48951;SDS011;34758;42.148;24.744;2023-07-29T13:55:30;1.52;;;0.93;;
48951;SDS011;34758;42.148;24.744;2023-07-29T13:58:16;1.00;;;0.65;;
48951;SDS011;34758;42.148;24.744;2023-07-29T14:00:44;2.55;;;0.73;;
48951;SDS011;34758;42.148;24.744;2023-07-29T14:03:15;0.50;;;0.40;;
48951;SDS011;34758;42.148;24.744;2023-07-29T14:05:46;0.85;;;0.70;;
48951;SDS011;34758;42.148;24.744;2023-07-29T14:08:16;0.65;;;0.60;;
48951;SDS011;34758;42.148;24.744;2023-07-29T14:10:44;0.63;;;0.55;;
48951;SDS011;34758;42.148;24.744;2023-07-29T14:13:12;1.70;;;0.68;;
48951;SDS011;34758;42.148;24.744;2023-07-29T14:15:47;0.57;;;0.52;;
48951;SDS011;34758;42.148;24.744;2023-07-29T14:18:13;1.17;;;0.75;;
48951;SDS011;34758;42.148;24.744;2023-07-29T14:20:40;0.70;;;0.52;;
48951;SDS011;34758;42.148;24.744;2023-07-29T14:23:07;0.80;;;0.60;;
48951;SDS011;34758;42.148;24.744;2023-07-29T14:25:35;0.65;;;0.65;;
48951;SDS011;34758;42.148;24.744;2023-07-29T14:28:05;0.50;;;0.50;;
48951;SDS011;34758;42.148;24.744;2023-07-29T14:30:37;0.70;;;0.55;;
48951;SDS011;34758;42.148;24.744;2023-07-29T14:33:06;0.68;;;0.68;;
48951;SDS011;34758;42.148;24.744;2023-07-29T14:35:36;1.45;;;0.70;;
48951;SDS011;34758;42.148;24.744;2023-07-29T14:38:08;0.73;;;0.60;;
48951;SDS011;34758;42.148;24.744;2023-07-29T14:40:36;0.75;;;0.75;;
48951;SDS011;34758;42.148;24.744;2023-07-29T14:43:04;0.70;;;0.70;;
48951;SDS011;34758;42.148;24.744;2023-07-29T14:45:37;0.60;;;0.50;;
48951;SDS011;34758;42.148;24.744;2023-07-29T14:48:04;0.70;;;0.70;;
48951;SDS011;34758;42.148;24.744;2023-07-29T14:50:34;1.20;;;1.00;;
48951;SDS011;34758;42.148;24.744;2023-07-29T14:53:02;1.42;;;0.80;;
48951;SDS011;34758;42.148;24.744;2023-07-29T14:55:31;0.68;;;0.68;;